createdAt,value
2018-04-12T00:01:11.032Z,15.18
2018-04-12T00:03:39.315Z,15.15
2018-04-12T00:06:07.580Z,15.13
2018-04-12T00:08:35.860Z,15.06
2018-04-12T00:11:04.993Z,15.08
2018-04-12T00:13:33.266Z,14.96
2018-04-12T00:16:01.539Z,15.02
2018-04-12T00:18:29.839Z,14.96
2018-04-12T00:20:58.097Z,14.95
2018-04-12T00:23:26.411Z,15.04
2018-04-12T00:25:54.679Z,15.16
2018-04-12T00:28:22.991Z,15.13
2018-04-12T00:30:52.103Z,15.04
2018-04-12T00:33:20.381Z,15.13
2018-04-12T00:35:48.689Z,15.07
2018-04-12T00:38:16.935Z,15.04
2018-04-12T00:40:45.253Z,14.93
2018-04-12T00:43:13.614Z,14.64
2018-04-12T00:45:41.900Z,14.33
2018-04-12T00:48:10.181Z,14.18
2018-04-12T00:50:38.461Z,14.13
2018-04-12T00:53:06.728Z,14.12
2018-04-12T00:55:35.017Z,14.06
2018-04-12T00:58:03.328Z,14.10
2018-04-12T01:00:31.623Z,14.07
2018-04-12T01:02:59.918Z,13.96
2018-04-12T01:05:28.258Z,13.82
2018-04-12T01:07:56.519Z,13.73
2018-04-12T01:10:24.814Z,13.82
2018-04-12T01:12:53.115Z,13.73
2018-04-12T01:15:21.418Z,13.79
2018-04-12T01:17:49.701Z,13.69
2018-04-12T01:20:18.022Z,13.66
2018-04-12T01:22:46.306Z,13.59
2018-04-12T01:25:14.587Z,13.57
2018-04-12T01:27:42.954Z,13.54
2018-04-12T01:30:11.228Z,13.46
2018-04-12T01:32:39.533Z,13.48
2018-04-12T01:35:07.800Z,13.42
2018-04-12T01:37:36.142Z,13.32
2018-04-12T01:40:05.100Z,13.17
2018-04-12T01:42:33.721Z,13.14
2018-04-12T01:45:02.014Z,13.10
2018-04-12T01:47:30.316Z,13.02
2018-04-12T01:49:58.580Z,12.96
2018-04-12T01:52:26.887Z,13.05
2018-04-12T01:54:55.166Z,13.16
2018-04-12T01:57:23.466Z,13.31
2018-04-12T01:59:51.748Z,13.20
2018-04-12T02:02:20.076Z,13.38
2018-04-12T02:04:48.371Z,13.54
2018-04-12T02:07:16.655Z,13.64
2018-04-12T02:09:44.953Z,13.70
2018-04-12T02:12:13.262Z,13.62
2018-04-12T02:14:41.543Z,13.48
2018-04-12T02:17:09.814Z,13.31
2018-04-12T02:19:38.141Z,13.26
2018-04-12T02:22:06.434Z,13.17
2018-04-12T02:24:34.708Z,13.05
2018-04-12T02:27:02.977Z,13.02
2018-04-12T02:29:31.266Z,12.95
2018-04-12T02:31:59.537Z,12.91
2018-04-12T02:34:27.822Z,12.92
2018-04-12T02:36:56.106Z,12.94
2018-04-12T02:39:24.418Z,12.99
2018-04-12T02:41:52.684Z,13.17
2018-04-12T02:44:20.994Z,13.28
2018-04-12T02:46:49.269Z,13.36
2018-04-12T02:49:17.584Z,13.33
2018-04-12T02:51:45.847Z,13.36
2018-04-12T02:54:14.127Z,13.42
2018-04-12T02:56:42.418Z,13.49
2018-04-12T02:59:10.706Z,13.45
2018-04-12T03:01:39.035Z,13.41
2018-04-12T03:04:07.341Z,13.28
2018-04-12T03:06:35.633Z,13.28
2018-04-12T03:09:03.934Z,13.22
2018-04-12T03:11:32.239Z,13.21
2018-04-12T03:14:00.505Z,13.16
2018-04-12T03:16:28.829Z,13.21
2018-04-12T03:18:57.096Z,13.31
2018-04-12T03:21:25.390Z,13.50
2018-04-12T03:23:53.649Z,13.72
2018-04-12T03:26:21.941Z,13.84
2018-04-12T03:28:50.210Z,14.00
2018-04-12T03:31:18.531Z,13.95
2018-04-12T03:33:46.814Z,13.93
2018-04-12T03:36:15.127Z,13.98
2018-04-12T03:38:43.408Z,13.97
2018-04-12T03:41:11.690Z,13.63
2018-04-12T03:43:39.951Z,13.39
2018-04-12T03:46:08.334Z,13.32
2018-04-12T03:48:36.657Z,13.40
2018-04-12T03:51:05.604Z,13.59
2018-04-12T03:53:33.891Z,13.78
2018-04-12T03:56:02.192Z,13.85
2018-04-12T03:58:30.514Z,13.76
2018-04-12T04:00:58.821Z,13.73
2018-04-12T04:03:27.152Z,13.80
2018-04-12T04:05:55.746Z,13.83
2018-04-12T04:08:24.037Z,13.74
2018-04-12T04:10:52.318Z,13.68
2018-04-12T04:13:20.615Z,13.70
2018-04-12T04:16:00.706Z,13.71
2018-04-12T04:18:41.620Z,13.58
2018-04-12T04:21:09.902Z,13.81
2018-04-12T04:23:38.195Z,13.87
2018-04-12T04:26:06.474Z,13.92
2018-04-12T04:28:34.779Z,13.90
2018-04-12T04:31:03.078Z,13.94
2018-04-12T04:33:31.396Z,13.97
2018-04-12T04:35:59.662Z,14.00
2018-04-12T04:38:28.644Z,14.03
2018-04-12T04:40:56.960Z,14.10
2018-04-12T04:43:25.226Z,14.11
2018-04-12T04:45:53.545Z,14.10
2018-04-12T04:48:21.862Z,14.09
2018-04-12T04:50:50.138Z,14.02
2018-04-12T04:53:18.451Z,13.98
2018-04-12T04:55:46.779Z,14.00
2018-04-12T04:58:15.052Z,14.03
2018-04-12T05:00:43.350Z,14.02
2018-04-12T05:03:11.672Z,14.06
2018-04-12T05:05:39.979Z,14.13
2018-04-12T05:08:08.272Z,14.10
2018-04-12T05:10:36.618Z,14.08
2018-04-12T05:13:04.897Z,14.05
2018-04-12T05:15:33.681Z,14.00
2018-04-12T05:18:01.892Z,13.96
2018-04-12T05:20:30.235Z,13.88
2018-04-12T05:22:58.577Z,14.00
2018-04-12T05:25:26.846Z,14.06
2018-04-12T05:27:55.158Z,14.00
2018-04-12T05:30:23.434Z,13.98
2018-04-12T05:32:52.348Z,13.91
2018-04-12T05:35:20.678Z,13.80
2018-04-12T05:37:49.006Z,13.78
2018-04-12T05:40:17.282Z,13.74
2018-04-12T05:42:45.583Z,13.79
2018-04-12T05:45:13.913Z,13.83
2018-04-12T05:47:42.312Z,13.85
2018-04-12T05:50:10.571Z,13.92
2018-04-12T05:52:38.842Z,13.97
2018-04-12T05:55:07.161Z,13.93
2018-04-12T05:57:35.451Z,13.91
2018-04-12T06:00:03.774Z,13.90
2018-04-12T06:02:32.174Z,13.92
2018-04-12T06:05:00.546Z,13.99
2018-04-12T06:07:28.860Z,14.03
2018-04-12T06:09:57.135Z,14.17
2018-04-12T06:12:25.416Z,14.06
2018-04-12T06:14:53.734Z,14.08
2018-04-12T06:17:22.006Z,14.04
2018-04-12T06:19:50.311Z,14.11
2018-04-12T06:22:18.585Z,14.16
2018-04-12T06:24:46.901Z,14.19
2018-04-12T06:27:15.190Z,14.18
2018-04-12T06:29:43.497Z,14.24
2018-04-12T06:32:11.833Z,14.20
2018-04-12T06:34:40.121Z,14.24
2018-04-12T06:37:09.366Z,14.34
2018-04-12T06:39:37.663Z,14.40
2018-04-12T06:42:06.390Z,14.25
2018-04-12T06:44:34.688Z,14.48
2018-04-12T06:47:03.013Z,14.60
2018-04-12T06:49:31.287Z,14.63
2018-04-12T06:51:59.617Z,14.68
2018-04-12T06:54:27.898Z,14.74
2018-04-12T06:56:56.229Z,14.76
2018-04-12T06:59:24.526Z,14.77
2018-04-12T07:01:52.859Z,14.82
2018-04-12T07:04:21.136Z,14.87
2018-04-12T07:06:49.453Z,14.90
2018-04-12T07:09:17.731Z,15.00
2018-04-12T07:11:46.129Z,15.11
2018-04-12T07:14:14.379Z,15.11
2018-04-12T07:16:42.702Z,15.19
2018-04-12T07:19:11.072Z,15.22
2018-04-12T07:21:39.346Z,15.24
2018-04-12T07:24:07.695Z,15.09
2018-04-12T07:26:35.961Z,15.17
2018-04-12T07:29:04.968Z,15.14
2018-04-12T07:31:33.270Z,15.32
2018-04-12T07:34:01.682Z,15.44
2018-04-12T07:36:29.962Z,15.58
2018-04-12T07:38:58.515Z,15.76
2018-04-12T07:41:26.846Z,15.97
2018-04-12T07:43:55.197Z,16.12
2018-04-12T07:46:23.490Z,16.32
2018-04-12T07:48:51.785Z,16.56
2018-04-12T07:51:20.071Z,16.78
2018-04-12T07:53:48.409Z,16.82
2018-04-12T07:56:16.687Z,16.79
2018-04-12T07:58:45.027Z,16.70
2018-04-12T08:01:13.367Z,16.68
2018-04-12T08:03:41.714Z,16.71
2018-04-12T08:06:09.988Z,16.68
2018-04-12T08:08:38.326Z,16.73
2018-04-12T08:11:06.878Z,16.78
2018-04-12T08:13:35.166Z,16.83
2018-04-12T08:16:03.449Z,16.74
2018-04-12T08:18:31.754Z,16.97
2018-04-12T08:21:00.086Z,16.99
2018-04-12T08:23:28.348Z,17.11
2018-04-12T08:25:56.654Z,17.31
2018-04-12T08:28:24.936Z,17.37
2018-04-12T08:30:53.255Z,16.98
2018-04-12T08:33:21.570Z,17.12
2018-04-12T08:35:50.466Z,17.41
2018-04-12T08:38:18.761Z,17.59
2018-04-12T08:40:47.075Z,17.63
2018-04-12T08:43:15.376Z,17.61
2018-04-12T08:45:43.667Z,17.92
2018-04-12T08:48:12.133Z,18.13
2018-04-12T08:50:41.203Z,18.40
2018-04-12T08:53:09.487Z,18.57
2018-04-12T08:55:37.991Z,18.34
2018-04-12T08:58:06.266Z,18.46
2018-04-12T09:00:34.609Z,18.68
2018-04-12T09:03:02.891Z,18.89
2018-04-12T09:05:31.689Z,19.06
2018-04-12T09:08:01.184Z,18.88
2018-04-12T09:10:29.485Z,18.81
2018-04-12T09:12:58.183Z,18.81
2018-04-12T09:15:26.479Z,18.94
2018-04-12T09:17:54.838Z,18.82
2018-04-12T09:20:23.062Z,18.55
2018-04-12T09:22:51.470Z,18.42
2018-04-12T09:25:19.903Z,18.39
2018-04-12T09:27:48.214Z,18.45
2018-04-12T09:30:16.680Z,18.17
2018-04-12T09:32:45.005Z,18.53
2018-04-12T09:35:13.283Z,18.59
2018-04-12T09:37:41.609Z,18.62
2018-04-12T09:40:09.919Z,18.82
2018-04-12T09:42:38.232Z,18.72
2018-04-12T09:45:06.573Z,18.81
2018-04-12T09:47:34.858Z,18.76
2018-04-12T09:50:03.181Z,18.63
2018-04-12T09:52:31.464Z,18.52
2018-04-12T09:54:59.830Z,18.58
2018-04-12T09:57:28.158Z,18.68
2018-04-12T09:59:56.553Z,18.81
2018-04-12T10:02:28.563Z,18.80
2018-04-12T10:05:00.654Z,18.96
2018-04-12T10:07:34.560Z,19.06
2018-04-12T10:10:02.863Z,19.15
2018-04-12T10:12:31.309Z,19.21
2018-04-12T10:14:59.571Z,19.27
2018-04-12T10:17:27.908Z,19.45
2018-04-12T10:19:56.169Z,19.55
2018-04-12T10:22:24.959Z,19.45
2018-04-12T10:24:53.261Z,19.62
2018-04-12T10:27:21.536Z,19.57
2018-04-12T10:29:49.848Z,19.52
2018-04-12T10:32:18.167Z,19.65
2018-04-12T10:34:46.480Z,19.65
2018-04-12T10:37:14.754Z,19.68
2018-04-12T10:39:43.065Z,19.59
2018-04-12T10:42:11.382Z,19.50
2018-04-12T10:44:39.681Z,19.49
2018-04-12T10:47:08.504Z,19.33
2018-04-12T10:49:36.766Z,19.27
2018-04-12T10:52:05.286Z,19.07
2018-04-12T10:54:33.552Z,19.14
2018-04-12T10:57:01.863Z,18.93
2018-04-12T10:59:30.132Z,18.90
2018-04-12T11:01:58.420Z,18.91
2018-04-12T11:04:27.133Z,18.88
2018-04-12T11:06:55.471Z,18.86
2018-04-12T11:09:24.749Z,18.69
2018-04-12T11:11:53.099Z,18.49
2018-04-12T11:14:21.825Z,18.42
2018-04-12T11:16:50.077Z,18.32
2018-04-12T11:19:18.393Z,18.30
2018-04-12T11:21:46.663Z,18.27
2018-04-12T11:24:15.005Z,18.27
2018-04-12T11:26:43.235Z,18.24
2018-04-12T11:29:11.603Z,18.21
2018-04-12T11:31:39.903Z,18.14
2018-04-12T11:34:08.228Z,18.22
2018-04-12T11:36:36.466Z,18.08
2018-04-12T11:39:06.707Z,17.96
2018-04-12T11:41:34.980Z,17.98
2018-04-12T11:44:04.148Z,17.83
2018-04-12T11:46:32.431Z,17.70
2018-04-12T11:49:00.708Z,17.76
2018-04-12T11:51:28.991Z,18.02
2018-04-12T11:53:57.279Z,18.20
2018-04-12T11:56:25.577Z,18.51
2018-04-12T11:58:53.863Z,18.69
2018-04-12T12:01:22.172Z,18.75
2018-04-12T12:03:50.470Z,18.71
2018-04-12T12:06:18.737Z,18.88
2018-04-12T12:08:47.028Z,19.10
2018-04-12T12:11:15.335Z,19.22
2018-04-12T12:13:43.598Z,19.51
2018-04-12T12:16:11.944Z,19.74
2018-04-12T12:18:40.613Z,19.89
2018-04-12T12:21:09.040Z,19.85
2018-04-12T12:23:37.315Z,19.89
2018-04-12T12:26:05.596Z,20.15
2018-04-12T12:28:34.314Z,20.13
2018-04-12T12:31:02.643Z,19.96
2018-04-12T12:33:31.007Z,20.25
2018-04-12T12:35:59.278Z,20.43
2018-04-12T12:38:27.590Z,20.35
2018-04-12T12:40:55.856Z,20.56
2018-04-12T12:43:29.881Z,20.54
2018-04-12T12:45:58.129Z,20.84
2018-04-12T12:48:32.202Z,20.90
2018-04-12T12:51:06.243Z,20.81
2018-04-12T12:53:34.544Z,20.94
2018-04-12T12:56:02.829Z,21.12
2018-04-12T12:58:31.149Z,21.51
2018-04-12T13:00:59.450Z,21.85
2018-04-12T13:03:33.671Z,21.95
2018-04-12T13:06:01.944Z,22.16
2018-04-12T13:08:30.667Z,22.40
2018-04-12T13:11:04.797Z,22.50
2018-04-12T13:13:33.828Z,22.38
2018-04-12T13:16:02.118Z,22.15
2018-04-12T13:18:30.466Z,22.23
2018-04-12T13:20:59.597Z,22.41
2018-04-12T13:23:27.891Z,22.35
2018-04-12T13:25:56.206Z,22.60
2018-04-12T13:28:25.460Z,22.68
2018-04-12T13:30:59.652Z,22.55
2018-04-12T13:33:33.482Z,22.66
2018-04-12T13:36:01.774Z,22.54
2018-04-12T13:38:30.145Z,22.40
2018-04-12T13:41:04.412Z,22.25
2018-04-12T13:43:32.739Z,22.35
2018-04-12T13:46:06.619Z,22.14
2018-04-12T13:48:34.893Z,22.05
2018-04-12T13:51:09.104Z,22.09
2018-04-12T13:53:37.397Z,21.84
2018-04-12T13:56:06.277Z,22.28
2018-04-12T13:58:34.577Z,22.63
2018-04-12T14:01:02.926Z,23.10
2018-04-12T14:03:31.672Z,23.35
2018-04-12T14:05:59.961Z,23.67
2018-04-12T14:08:28.275Z,23.70
2018-04-12T14:10:56.580Z,23.97
2018-04-12T14:13:24.888Z,24.25
2018-04-12T14:15:53.162Z,24.56
2018-04-12T14:18:21.465Z,24.83
2018-04-12T14:20:49.792Z,24.79
2018-04-12T14:23:23.577Z,25.18
2018-04-12T14:25:51.842Z,25.57
2018-04-12T14:28:20.141Z,25.46
2018-04-12T14:30:48.523Z,24.66
2018-04-12T14:33:16.798Z,24.67
2018-04-12T14:35:45.075Z,25.16
2018-04-12T14:38:13.358Z,25.20
2018-04-12T14:40:41.678Z,25.44
2018-04-12T14:43:10.040Z,25.73
2018-04-12T14:45:43.896Z,24.45
2018-04-12T14:48:12.232Z,23.77
2018-04-12T14:50:41.413Z,23.43
2018-04-12T14:53:09.741Z,23.18
2018-04-12T14:55:44.035Z,23.03
2018-04-12T14:58:12.334Z,22.43
2018-04-12T15:00:40.654Z,22.62
2018-04-12T15:03:14.710Z,22.58
2018-04-12T15:05:42.987Z,22.51
2018-04-12T15:08:12.020Z,22.70
2018-04-12T15:10:46.179Z,23.15
2018-04-12T15:13:26.098Z,23.33
2018-04-12T15:15:55.357Z,23.78
2018-04-12T15:18:29.383Z,23.92
2018-04-12T15:21:03.462Z,24.02
2018-04-12T15:23:37.581Z,24.53
2018-04-12T15:26:05.877Z,24.98
2018-04-12T15:28:34.145Z,25.00
2018-04-12T15:31:02.461Z,24.89
2018-04-12T15:33:30.764Z,25.30
2018-04-12T15:35:59.062Z,25.74
2018-04-12T15:38:27.447Z,26.09
2018-04-12T15:41:07.230Z,26.35
2018-04-12T15:43:41.357Z,26.24
2018-04-12T15:46:09.708Z,26.02
2018-04-12T15:48:43.850Z,25.37
2018-04-12T15:51:12.493Z,24.86
2018-04-12T15:53:42.027Z,24.27
2018-04-12T15:56:10.307Z,24.09
2018-04-12T15:58:44.478Z,24.04
2018-04-12T16:01:18.899Z,23.96
2018-04-12T16:03:48.416Z,23.69
2018-04-12T16:06:16.830Z,22.86
2018-04-12T16:08:51.388Z,22.71
2018-04-12T16:11:31.162Z,22.51
2018-04-12T16:14:00.421Z,22.61
2018-04-12T16:16:28.718Z,22.78
2018-04-12T16:18:57.024Z,22.86
2018-04-12T16:21:31.077Z,23.05
2018-04-12T16:24:16.861Z,23.37
2018-04-12T16:26:50.677Z,23.73
2018-04-12T16:29:24.669Z,23.40
2018-04-12T16:31:58.475Z,23.04
2018-04-12T16:34:26.813Z,22.98
2018-04-12T16:37:01.748Z,22.78
2018-04-12T16:39:35.556Z,22.67
2018-04-12T16:42:03.842Z,22.41
2018-04-12T16:44:43.670Z,22.45
2018-04-12T16:47:17.688Z,22.46
2018-04-12T16:49:46.017Z,22.51
2018-04-12T16:52:19.973Z,22.54
2018-04-12T16:54:48.313Z,22.33
2018-04-12T16:57:16.591Z,22.13
2018-04-12T16:59:44.924Z,22.13
2018-04-12T17:02:13.224Z,22.34
2018-04-12T17:04:47.487Z,22.56
2018-04-12T17:07:15.812Z,22.64
2018-04-12T17:09:44.092Z,22.78
2018-04-12T17:12:17.916Z,23.18
2018-04-12T17:14:51.921Z,23.46
2018-04-12T17:17:20.285Z,23.52
2018-04-12T17:19:54.128Z,23.39
2018-04-12T17:22:28.230Z,22.94
2018-04-12T17:25:02.155Z,22.77
2018-04-12T17:27:36.226Z,22.71
2018-04-12T17:30:10.455Z,22.63
2018-04-12T17:32:38.896Z,22.46
2018-04-12T17:35:07.232Z,22.51
2018-04-12T17:37:36.335Z,22.39
2018-04-12T17:40:10.425Z,22.10
2018-04-12T17:42:38.710Z,22.19
2018-04-12T17:45:06.986Z,22.23
2018-04-12T17:47:40.995Z,22.24
2018-04-12T17:50:09.278Z,22.07
2018-04-12T17:52:37.586Z,22.20
2018-04-12T17:55:05.839Z,22.41
2018-04-12T17:57:34.962Z,22.38
2018-04-12T18:00:03.303Z,22.59
2018-04-12T18:02:31.580Z,22.52
2018-04-12T18:04:59.914Z,22.05
2018-04-12T18:07:28.192Z,22.12
2018-04-12T18:09:56.675Z,22.35
2018-04-12T18:12:24.981Z,22.40
2018-04-12T18:14:53.325Z,22.02
2018-04-12T18:17:27.626Z,21.19
2018-04-12T18:19:56.873Z,21.06
2018-04-12T18:22:30.816Z,21.16
2018-04-12T18:24:59.137Z,21.11
2018-04-12T18:27:27.439Z,21.01
2018-04-12T18:29:55.765Z,20.96
2018-04-12T18:32:35.319Z,20.84
2018-04-12T18:35:03.732Z,20.64
2018-04-12T18:37:37.802Z,20.30
2018-04-12T18:40:06.150Z,19.98
2018-04-12T18:42:34.406Z,20.09
2018-04-12T18:45:02.698Z,19.92
2018-04-12T18:47:31.300Z,19.98
2018-04-12T18:50:11.181Z,20.08
2018-04-12T18:52:39.595Z,20.24
2018-04-12T18:55:13.522Z,20.10
2018-04-12T18:57:41.803Z,20.24
2018-04-12T19:00:10.078Z,20.41
2018-04-12T19:02:38.436Z,20.29
2018-04-12T19:05:06.709Z,20.52
2018-04-12T19:07:35.043Z,20.73
2018-04-12T19:10:03.362Z,20.84
2018-04-12T19:12:31.718Z,20.89
2018-04-12T19:14:59.988Z,21.04
2018-04-12T19:17:28.280Z,21.08
2018-04-12T19:19:56.625Z,21.10
2018-04-12T19:22:24.934Z,21.12
2018-04-12T19:24:53.268Z,21.18
2018-04-12T19:27:21.519Z,21.20
2018-04-12T19:29:55.454Z,21.18
2018-04-12T19:32:29.745Z,21.15
2018-04-12T19:35:03.900Z,21.12
2018-04-12T19:37:32.230Z,21.12
2018-04-12T19:40:00.471Z,21.16
2018-04-12T19:42:34.248Z,21.15
2018-04-12T19:45:02.512Z,21.11
2018-04-12T19:47:30.801Z,21.06
2018-04-12T19:49:59.055Z,21.02
2018-04-12T19:52:27.340Z,21.01
2018-04-12T19:55:01.360Z,20.83
2018-04-12T19:57:29.675Z,20.63
2018-04-12T20:00:04.311Z,20.62
2018-04-12T20:02:32.623Z,20.66
2018-04-12T20:05:00.948Z,20.65
2018-04-12T20:07:35.099Z,20.67
2018-04-12T20:10:09.265Z,20.73
2018-04-12T20:12:37.567Z,20.71
2018-04-12T20:15:17.266Z,20.75
2018-04-12T20:17:57.447Z,20.75
2018-04-12T20:20:31.762Z,20.69
2018-04-12T20:23:06.026Z,20.59
2018-04-12T20:25:40.042Z,20.55
2018-04-12T20:28:14.207Z,20.56
2018-04-12T20:30:48.374Z,20.48
2018-04-12T20:33:22.558Z,19.93
2018-04-12T20:35:50.822Z,19.86
2018-04-12T20:38:19.102Z,20.10
2018-04-12T20:40:47.398Z,20.17
2018-04-12T20:43:15.671Z,20.16
2018-04-12T20:45:43.977Z,20.16
2018-04-12T20:48:17.960Z,19.96
2018-04-12T20:50:46.270Z,19.19
2018-04-12T20:53:20.487Z,19.16
2018-04-12T20:55:48.786Z,19.28
2018-04-12T20:58:17.143Z,19.60
2018-04-12T21:00:45.513Z,19.66
2018-04-12T21:03:13.788Z,19.69
2018-04-12T21:05:47.649Z,19.69
2018-04-12T21:08:15.981Z,19.65
2018-04-12T21:10:44.261Z,19.47
2018-04-12T21:13:12.525Z,19.52
2018-04-12T21:15:40.844Z,19.61
2018-04-12T21:18:15.122Z,19.55
2018-04-12T21:20:43.444Z,19.58
2018-04-12T21:23:17.226Z,19.61
2018-04-12T21:25:51.038Z,19.80
2018-04-12T21:28:19.358Z,19.84
2018-04-12T21:30:47.634Z,19.87
2018-04-12T21:33:21.787Z,19.84
2018-04-12T21:35:50.064Z,19.80
2018-04-12T21:38:18.346Z,19.72
2018-04-12T21:40:46.609Z,19.76
2018-04-12T21:43:14.910Z,19.72
2018-04-12T21:45:43.258Z,19.68
2018-04-12T21:48:11.545Z,19.36
2018-04-12T21:50:39.815Z,19.20
2018-04-12T21:53:08.935Z,19.27
2018-04-12T21:55:37.190Z,19.28
2018-04-12T21:58:05.491Z,19.30
2018-04-12T22:00:33.765Z,19.29
2018-04-12T22:03:02.022Z,19.22
2018-04-12T22:05:30.301Z,18.45
2018-04-12T22:08:04.319Z,17.36
2018-04-12T22:10:32.688Z,16.65
2018-04-12T22:13:00.931Z,16.18
2018-04-12T22:15:34.987Z,15.76
2018-04-12T22:18:03.265Z,15.60
2018-04-12T22:20:37.166Z,14.95
2018-04-12T22:23:05.490Z,14.79
2018-04-12T22:25:33.781Z,14.85
2018-04-12T22:28:02.065Z,14.76
2018-04-12T22:30:30.933Z,14.72
2018-04-12T22:32:59.179Z,14.68
2018-04-12T22:35:33.453Z,14.67
2018-04-12T22:38:01.690Z,14.71
2018-04-12T22:40:29.995Z,14.67
2018-04-12T22:42:58.258Z,14.54
2018-04-12T22:45:26.549Z,14.44
2018-04-12T22:47:54.858Z,14.32
2018-04-12T22:50:23.461Z,14.35
2018-04-12T22:52:57.701Z,14.38
2018-04-12T22:55:25.959Z,14.41
2018-04-12T22:57:54.241Z,14.34
2018-04-12T23:00:34.368Z,14.23
2018-04-12T23:03:02.641Z,14.12
2018-04-12T23:05:36.765Z,14.05
2018-04-12T23:08:10.542Z,14.05
2018-04-12T23:10:38.850Z,13.79
2018-04-12T23:13:07.130Z,13.85
2018-04-12T23:15:35.474Z,13.77
2018-04-12T23:18:09.544Z,13.79
2018-04-12T23:20:43.482Z,13.73
2018-04-12T23:23:11.773Z,13.79
2018-04-12T23:25:40.081Z,13.69
2018-04-12T23:28:08.363Z,13.59
2018-04-12T23:30:36.627Z,13.59
2018-04-12T23:33:05.870Z,13.55
2018-04-12T23:35:34.157Z,13.57
2018-04-12T23:38:08.105Z,13.55
2018-04-12T23:40:37.241Z,13.57
2018-04-12T23:43:05.823Z,13.39
2018-04-12T23:45:34.122Z,13.37
2018-04-12T23:48:02.377Z,13.42
2018-04-12T23:50:30.672Z,13.38
2018-04-12T23:52:58.951Z,13.27
2018-04-12T23:55:38.986Z,13.31
2018-04-12T23:58:12.762Z,13.33
